Tiempo atmosférico en la estación meteorológica de Jaén, Jaén (582 m.)



Fecha
DESCASC
Temp. máxima en grados centígrados (hora)
DESCASC
Temp. mínima en grados centígrados (hora)
DESCASC
Temp. media en grados centígrados
DESCASC
Racha de viento máxima en m/sg (hora)
DESCASC
Velocidad máxima media en intervalos de 10 minutos(hora)
DESCASC
Precipitaciones diarias en mm
DESCASC
Precipitaciones de 00:00 a 06:00 en mm
DESCASC
Precipitaciones de 06:00 a 12:00 en mm
DESCASC
Precipitaciones de 12:00 a 18:00 en mm
DESCASC
Precipitaciones de 18:00 a 24:00 en mm
DESCASC
18-04-2019 13.5 (00:30) 9.7 (10:00) 11.6 11.11 (16:00) 5.56 (16:00) 16.2 6.4 6.4 3.4 0
17-04-2019 25.8 (13:50) 12 (07:10) 18.9 12.78 (17:40) 7.78 (17:20) 0 0 0 0 0
16-04-2019 24.2 (17:50) 11.1 (00:00) 17.7 8.61 (00:10) 5.28 (00:10) 0 0 0 0 0
15-04-2019 25.9 (16:20) 14.8 (00:00) 20.3 15 (18:20) 7.22 (17:40) 0 0 0 0 0
14-04-2019 23.9 (17:30) 10.4 (00:00) 17.1 8.06 (16:40) 5.28 (18:10) 0 0 0 0 0
13-04-2019 21.3 (17:20) 8.2 (00:00) 14.7 7.5 (23:59) 4.72 (18:00) 0 0 0 0 0
12-04-2019 19 (18:00) 6.6 (00:00) 12.8 7.78 (14:20) 3.61 (14:10) 0 0 0 0 0
11-04-2019 17.3 (17:20) 5.7 (00:00) 11.5 8.33 (22:40) 4.72 (22:50) 0 0 0 0 0
10-04-2019 14.7 (17:40) 7.5 (00:00) 11.1 9.17 (03:20) 5 (02:20) 0.8 0.8 0 0 0
09-04-2019 14.8 (16:50) 7.4 (00:00) 11.1 12.5 (02:00) 6.67 (16:30) 1.4 0.4 0 0.6 0.4
08-04-2019 16.4 (15:50) 11 (00:00) 13.7 13.33 (15:10) 6.94 (21:10) 10.8 0.2 0.4 1.4 8.8
07-04-2019 13.8 (15:30) 6.7 (00:00) 10.3 14.17 (04:10) 7.22 (02:40) 5.6 1.4 0.2 0 4
06-04-2019 11.5 (14:40) 5.7 (00:00) 8.6 14.72 (16:20) 7.78 (16:30) 12 0.6 2.4 1.8 7.2
05-04-2019 11.8 (16:50) 6.6 (00:00) 9.2 15.56 (17:30) 8.06 (23:10) 10.8 0 5.4 4.4 1
04-04-2019 16.9 (15:10) 5.9 (00:00) 11.4 11.94 (17:20) 7.78 (15:50) 0 0 0 0 0
03-04-2019 20.1 (15:30) 11.3 (00:00) 15.7 13.06 (17:30) 6.94 (16:20) 0 0 0 0 0
02-04-2019 18.5 (18:00) 8.5 (00:00) 13.5 7.78 (17:00) 5 (17:10) 0 0 0 0 0
01-04-2019 16.7 (15:00) 9.9 (00:00) 13.3 9.72 (17:10) 5.28 (17:10) 1.4 0 1 0 0.4
31-03-2019 14.5 (16:20) 9.8 (00:00) 12.2 6.11 (04:30) 3.61 (04:10) 4.4 1.6 2.6 0.2 0
30-03-2019 22.2 (15:10) 10.2 (00:00) 16.2 12.5 (19:40) 7.78 (19:30) 6.4 0 0 0 6.4
29-03-2019 20.6 (15:30) 9.3 (00:00) 15 12.22 (06:30) 7.22 (09:10) 0 0 0 0 0
28-03-2019 20.4 (15:20) 9.4 (00:00) 14.9 18.06 (23:30) 9.72 (22:20) 0 0 0 0 0
27-03-2019 19.6 (16:00) 9.1 (00:00) 14.4 23.33 (04:00) 15.28 (04:00) 0 0 0 0 0
26-03-2019 22.4 (13:30) 13.7 (00:00) 18 19.72 (23:59) 11.94 (23:20) 0 0 0 0 0
25-03-2019 23 (16:00) 10.9 (00:00) 16.9 13.33 (23:30) 7.22 (00:50) 0 0 0 0 0
24-03-2019 18.9 (15:20) 11.3 (00:00) 15.1 14.72 (07:30) 8.89 (01:50) 0 0 0 0 0
23-03-2019 18.9 (13:10) 7.8 (00:00) 13.3 14.72 (23:40) 8.89 (23:40) 0 0 0 0 0
22-03-2019 19 (15:20) 6.2 (00:00) 12.6 13.89 (00:30) 8.33 (00:40) 0 0 0 0 0
21-03-2019 16.8 (15:30) 7.6 (00:00) 12.2 10.56 (23:50) 6.39 (23:50) 0 0 0 0 0

Gráficas

Temp. máximas Temp. mínimas Temp. medias Precipitaciones Rachas de viento máximas Velocidades máximas media en intervalos de 10 minutos

Datos horarios

Fecha y hora oficial Temperatura (ºC) Velocidad del viento (km/h) Dirección del viento Racha (km/h) Dirección de racha Precipitación (mm) Presión (hPa) Tendencia (hPa) Humedad (%)
2019-04-19 23:00:00 10.3 2 Oeste 11 Sur 0 948.9 1.6 78
2019-04-19 22:00:00 11.2 7 Sur 13 Sudeste 0 948.8 2.3 78
2019-04-19 21:00:00 11.9 4 Norte 18 Norte 0 948.4 2.1 86
2019-04-19 20:00:00 13.3 5 Sudeste 11 Este 0 947.3 1.1 79
2019-04-19 19:00:00 14.8 2 Sudoeste 13 Oeste 0 946.5 -0.1 61
2019-04-19 18:00:00 14.7 5 Noroeste 15 Norte 0 946.3 -0.7 58
2019-04-19 17:00:00 16.6 5 Oeste 12 Norte 0 946.2 -1.1 52
2019-04-19 16:00:00 15.9 5 Norte 13 Norte 0 946.6 -1.1 56
2019-04-19 15:00:00 12.7 6 Sudeste 16 Este 0.6 947 -1 81
2019-04-19 14:00:00 14.1 5 Nordeste 18 Norte 0 947.3 -0.6 66
2019-04-19 13:00:00 15.5 9 Norte 23 Norte 0 947.7 0.1 64
2019-04-19 12:00:00 14.2 7 Este 16 Nordeste 0 948 0.4 72
2019-04-19 11:00:00 11.6 8 Sudeste 16 Este 0 947.9 0.6 80
2019-04-19 10:00:00 10.3 8 Este 13 Sudeste 0 947.6 0.8 86
2019-04-19 09:00:00 9.4 0 Calma 7 Este 0 947.6 1.2 94
2019-04-19 08:00:00 8.9 4 Sudeste 6 Sur 0 947.3 0.4 94
2019-04-19 07:00:00 9 3 Noroeste 8 Noroeste 0 946.8 0 93
2019-04-19 06:00:00 9.3 2 Oeste 8 Sudeste 0 946.4 -0.7 89
2019-04-19 05:00:00 9.3 5 Sudeste 9 Sudeste 0 946.9 -0.7 90
2019-04-19 04:00:00 9.7 3 Sudoeste 13 Oeste 0 946.8 -0.6 84
2019-04-19 03:00:00 9.9 3 Sur 7 Sur 0 947.1 0.2 85
2019-04-19 02:00:00 10 2 Sur 7 Oeste 0 947.6 0.6 87
2019-04-19 01:00:00 10.2 3 Oeste 11 Nordeste 0 947.4 0.9 85
2019-04-19 00:00:00 10 3 Sur 10 Noroeste 0 946.9 0.9 80
2019-04-18 23:00:00 10.4 2 Sudeste 11 Norte 0 947 1.5 83
2019-04-18 22:00:00 10.9 5 Nordeste 15 Sudoeste 0 946.5 1.4 78
2019-04-18 21:00:00 11.2 6 Sudoeste 15 Oeste 0 946 1.1 77
2019-04-18 20:00:00 11.5 0 Calma 11 Noroeste 0 945.5 0.6 84
2019-04-18 19:00:00 11.8 7 Sur 14 Oeste 0 945.1 0.2 76
2019-04-18 18:00:00 10.7 8 Oeste 34 Noroeste 0.2 944.9 0.1 89
2019-04-18 17:00:00 10.9 19 Noroeste 33 Oeste 1.4 944.9 -0.2 93
2019-04-18 16:00:00 11.6 20 Oeste 40 Oeste 0.6 944.9 -1.1 79
2019-04-18 15:00:00 13.3 3 Sudoeste 9 Este 0 944.8 -1.8 82
2019-04-18 14:00:00 12.5 4 Norte 9 Nordeste 0 945.1 -1.5 91
2019-04-18 13:00:00 10.5 4 Norte 14 Noroeste 1.2 946 -0.3 95
2019-04-18 12:00:00 11 4 Norte 10 Noroeste 0 946.6 0.1 92
2019-04-18 11:00:00 10.4 4 Norte 9 Norte 0 946.6 1 96
2019-04-18 10:00:00 9.8 6 Sur 11 Sur 0.8 946.3 0.8 94
2019-04-18 09:00:00 9.9 4 Sudeste 22 Sur 0.8 946.5 0.8 95
2019-04-18 08:00:00 10.2 15 Sur 35 Sudoeste 1.4 945.6 -0.1 81
2019-04-18 07:00:00 9.9 9 Sur 21 Sur 3.4 945.5 -0.3 90
2019-04-18 06:00:00 10.1 12 Noroeste 29 Noroeste 3 945.7 -0.4 93
2019-04-18 05:00:00 10.8 4 Norte 13 Noroeste 0.8 945.7 -1.8 95
2019-04-18 04:00:00 11.1 9 Norte 24 Noroeste 0.2 945.8 -2 95
2019-04-18 03:00:00 11.2 12 Sudeste 28 Sudeste 2 946.1 -1.6 94
2019-04-18 02:00:00 11.9 13 Sur 23 Oeste 0.2 947.5 0.2 91
2019-04-18 01:00:00 13 5 Sudoeste 30 Oeste 0.2 947.8 1.3 86
2019-04-18 00:00:00 13.3 14 Noroeste 45 Oeste 0 947.7 1.6 74
2019-04-17 23:00:00 14.3 20 Oeste 36 Noroeste 0 947.3 2.7 74
2019-04-17 22:00:00 16.1 17 Oeste 36 Noroeste 0 946.5 2.3 64
2019-04-17 21:00:00 16.9 15 Noroeste 41 Oeste 0 946.1 3.2 58
2019-04-17 20:00:00 17.4 17 Oeste 37 Oeste 0 944.6 2.9 60
2019-04-17 19:00:00 18 22 Oeste 46 Oeste 0 944.2 2 58
2019-04-17 18:00:00 19.6 24 Noroeste 46 Noroeste 0 942.9 0.4 53
2019-04-17 17:00:00 22.8 19 Oeste 44 Noroeste 0 941.7 -1.4 39
2019-04-17 16:00:00 23.8 16 Noroeste 34 Noroeste 0 942.2 -1.6 38
2019-04-17 15:00:00 25.5 3 Noroeste 21 Norte 0 942.5 -2 30
2019-04-17 14:00:00 25.6 9 Noroeste 17 Noroeste 0 943.1 -1.5 30
2019-04-17 13:00:00 23.5 4 Este 13 Sudeste 0 943.8 -0.5 34
2019-04-17 12:00:00 21.8 5 Norte 11 Norte 0 944.5 0.1 38
2019-04-17 11:00:00 20.6 4 Norte 15 Noroeste 0 944.6 0 44
2019-04-17 10:00:00 21.9 8 Sudeste 26 Sur 0 944.3 -0.7 31
2019-04-17 09:00:00 18.9 15 Sudeste 29 Sudeste 0 944.4 -1 35
2019-04-17 08:00:00 12.6 4 Noroeste 9 Noroeste 0 944.6 -1 60
2019-04-17 07:00:00 12.2 2 Oeste 7 Noroeste 0 945 -1.5 60
2019-04-17 06:00:00 13.3 5 Noroeste 18 Sudeste 0 945.4 -2 55
2019-04-17 05:00:00 14.8 9 Sudeste 16 Sudeste 0 945.6 -1.9 50
2019-04-17 04:00:00 14.1 3 Oeste 9 Sudeste 0 946.5 -0.5 48
2019-04-17 03:00:00 16 6 Sudoeste 21 Oeste 0 947.4 0.1 44
2019-04-17 02:00:00 16.7 8 Oeste 13 Oeste 0 947.5 0.1 37
2019-04-17 01:00:00 18.9 9 Sudeste 23 Sudeste 0 947 -0.4 30
2019-04-17 00:00:00 18.6 15 Sur 23 Sur 0 947.3 0.3 29
2019-04-16 23:00:00 18.5 12 Sur 15 Sur 0 947.4 0.7 28
2019-04-16 22:00:00 19.5 9 Sudeste 15 Sudoeste 0 947.4 0.7 36
2019-04-16 21:00:00 19.6 8 Sudoeste 10 Sudoeste 0 947 -0.2 48
2019-04-16 20:00:00 22.7 3 Noroeste 7 Norte 0 946.7 -0.9 41
2019-04-16 19:00:00 23.3 4 Oeste 12 Noroeste 0 946.7 -1.8 36
2019-04-16 18:00:00 23.8 9 Norte 20 Norte 0 947.2 -1.9 34
2019-04-16 17:00:00 24 6 Norte 18 Norte 0 947.6 -2.6 34
2019-04-16 16:00:00 23 6 Noroeste 17 Este 0 948.5 -2.3 39
2019-04-16 15:00:00 21.8 6 Nordeste 17 Nordeste 0 949.1 -2.4 46
2019-04-16 14:00:00 20.3 7 Nordeste 21 Este 0 950.2 -1.3 50
2019-04-16 13:00:00 18.6 6 Norte 15 Norte 0 950.8 -0.7 59
2019-04-16 12:00:00 16.2 6 Norte 14 Noroeste 0 951.5 0.3 70
2019-04-16 11:00:00 14.6 4 Nordeste 10 Nordeste 0 951.5 0.5 80
2019-04-16 10:00:00 13.2 5 Nordeste 9 Nordeste 0 951.5 0.7 86
2019-04-16 09:00:00 11.7 3 Norte 9 Norte 0 951.2 0.3 93
2019-04-16 08:00:00 11.3 3 Noroeste 19 Sur 0 951 -0.2 91
2019-04-16 07:00:00 11.3 10 Sudeste 15 Sudeste 0 950.8 -0.6 93
2019-04-16 06:00:00 11.9 2 Sur 13 Oeste 0 950.9 -0.5 83
2019-04-16 05:00:00 12.5 8 Oeste 11 Oeste 0 951.2 -0.2 76
2019-04-16 04:00:00 12.9 3 Sudoeste 9 Oeste 0 951.4 0 77
2019-04-16 03:00:00 14.1 6 Oeste 18 Oeste 0 951.4 0.2 71
2019-04-16 02:00:00 15.1 12 Oeste 26 Oeste 0 951.4 1 72
2019-04-16 01:00:00 15.2 17 Oeste 31 Oeste 0 951.4 2.3 73
2019-04-16 00:00:00 15.7 21 Oeste 38 Oeste 0 951.2 3.1 67
2019-04-15 23:00:00 16.6 20 Oeste 41 Oeste 0 950.4 2.9 62
2019-04-15 22:00:00 18.1 17 Oeste 36 Oeste 0 949.1 2.2 49
2019-04-15 21:00:00 19.4 11 Oeste 32 Oeste 0 948.1 1.8 36
2019-04-15 20:00:00 21.2 19 Oeste 49 Noroeste 0 947.5 1.5 32
2019-04-15 19:00:00 23.3 25 Oeste 54 Noroeste 0 946.9 0.7 26
2019-04-15 18:00:00 24.4 21 Noroeste 48 Noroeste 0 946.3 -0.2 31
2019-04-15 17:00:00 24.9 24 Noroeste 41 Noroeste 0 946 -1 32
2019-04-15 16:00:00 25.3 21 Noroeste 40 Norte 0 946.2 -1.2 32
2019-04-15 15:00:00 24.8 20 Noroeste 35 Noroeste 0 946.5 -1.4 37
2019-04-15 14:00:00 23.4 19 Noroeste 33 Noroeste 0 947 -0.4 39
2019-04-15 13:00:00 22.8 15 Noroeste 31 Noroeste 0 947.4 0.4 37
2019-04-15 12:00:00 21.5 12 Oeste 30 Oeste 0 947.9 1.6 34
2019-04-15 11:00:00 21.2 11 Oeste 34 Oeste 0 947.4 0.8 36
2019-04-15 10:00:00 18.2 5 Noroeste 21 Sur 0 947 0.4 60
2019-04-15 09:00:00 18.9 17 Sur 23 Sur 0 946.3 -0.7 46
2019-04-15 08:00:00 15.4 2 Norte 8 Sudoeste 0 946.6 -0.8 60
2019-04-15 07:00:00 15.6 4 Sudeste 15 Sur 0 946.6 -1.5 61
2019-04-15 06:00:00 16.3 8 Sur 13 Sur 0 947 -1.6 59
2019-04-15 05:00:00 15.3 6 Sur 11 Sur 0 947.4 -1.7 64
2019-04-15 04:00:00 14.9 5 Sur 9 Sudoeste 0 948.1 -1.4 67
2019-04-15 03:00:00 15.6 8 Sudoeste 10 Sudoeste 0 948.6 -1.1 66
2019-04-15 02:00:00 15.6 4 Sudoeste 8 Sudoeste 0 949.1 -0.7 66
2019-04-15 01:00:00 16.7 5 Sudoeste 10 Sur 0 949.5 -0.2 61
2019-04-15 00:00:00 17.5 5 Sur 11 Sudoeste 0 949.7 0.4 57
2019-04-14 23:00:00 19.1 9 Sudoeste 13 Sudoeste 0 949.8 0.6 52
2019-04-14 22:00:00 19.4 8 Sudoeste 14 Oeste 0 949.7 0.7 50
2019-04-14 21:00:00 19.8 7 Sudoeste 10 Oeste 0 949.3 0.4 49
2019-04-14 20:00:00 21.7 5 Noroeste 21 Noroeste 0 949.2 -0.3 45
2019-04-14 19:00:00 22.5 12 Noroeste 29 Noroeste 0 949 -1.4 41
2019-04-14 18:00:00 23.6 19 Noroeste 27 Noroeste 0 948.9 -1.9 38
2019-04-14 17:00:00 23.6 16 Noroeste 29 Noroeste 0 949.5 -1.8 37
2019-04-14 16:00:00 23.1 17 Noroeste 28 Noroeste 0 950.4 -1.4 37
2019-04-14 15:00:00 22.6 11 Noroeste 24 Norte 0 950.8 -1.5 38
2019-04-14 14:00:00 21.4 10 Norte 19 Norte 0 951.3 -1.2 40
2019-04-14 13:00:00 20 4 Norte 12 Nordeste 0 951.8 -0.3 45
2019-04-14 12:00:00 18.2 4 Nordeste 10 Nordeste 0 952.3 0.3 50
2019-04-14 11:00:00 16.1 6 Nordeste 11 Nordeste 0 952.5 0.9 55
2019-04-14 10:00:00 13.2 6 Norte 9 Norte 0 952.1 0.5 61
2019-04-14 09:00:00 12.4 2 Nordeste 7 Oeste 0 952 0.3 64
2019-04-14 08:00:00 10.9 2 Sur 6 Sudoeste 0 951.6 -0.5 67
2019-04-14 07:00:00 10.7 3 Sudoeste 5 Sudoeste 0 951.6 -0.3 66
2019-04-14 06:00:00 11.5 4 Sur 7 Sur 0 951.7 -0.5 64
2019-04-14 05:00:00 12.2 4 Oeste 8 Oeste 0 952.1 -0.5 60
2019-04-14 04:00:00 14.2 3 Nordeste 13 Sur 0 951.9 -1.1 50
2019-04-14 03:00:00 13.3 4 Sudoeste 13 Sur 0 952.2 -0.8 54
2019-04-14 02:00:00 14.6 2 Nordeste 16 Oeste 0 952.6 -0.2 48
2019-04-14 01:00:00 15.7 7 Oeste 25 Oeste 0 953 0.7 45
2019-04-14 00:00:00 16.5 13 Oeste 27 Sudoeste 0 953 1.3 42
2019-04-13 23:00:00 16.7 7 Oeste 21 Sudoeste 0 952.8 1.5 39
2019-04-13 22:00:00 17.2 10 Oeste 20 Oeste 0 952.3 1.3 33
2019-04-13 21:00:00 17.5 9 Oeste 18 Oeste 0 951.7 0.7 33
2019-04-13 20:00:00 19.6 10 Oeste 20 Noroeste 0 951.3 0 28
2019-04-13 19:00:00 20.4 10 Noroeste 24 Noroeste 0 951 -0.7 26
2019-04-13 18:00:00 20.9 17 Noroeste 26 Noroeste 0 951 -1.1 24
2019-04-13 17:00:00 21 11 Norte 23 Norte 0 951.3 -1.1 25
2019-04-13 16:00:00 20.8 8 Noroeste 20 Noroeste 0 951.7 -1.2 29
2019-04-13 15:00:00 19.6 8 Noroeste 21 Noroeste 0 952.1 -1.1 29
2019-04-13 14:00:00 19.7 5 Norte 20 Norte 0 952.4 -0.9 32
2019-04-13 13:00:00 18.8 6 Nordeste 15 Norte 0 952.9 0 35
2019-04-13 12:00:00 17.1 5 Norte 11 Nordeste 0 953.2 0.7 47
2019-04-13 11:00:00 14.8 4 Nordeste 10 Nordeste 0 953.3 1.2 52
2019-04-13 10:00:00 12.7 5 Norte 9 Norte 0 952.9 1.4 56
2019-04-13 09:00:00 11.1 2 Este 6 Sur 0 952.5 1.2 62
2019-04-13 08:00:00 8.3 3 Sudoeste 6 Sur 0 952.1 1 71
2019-04-13 07:00:00 8.6 3 Sur 6 Sur 0 951.5 0.7 67
2019-04-13 06:00:00 9.3 4 Sur 6 Sur 0 951.3 0.1 64
2019-04-13 05:00:00 10.8 3 Sur 13 Oeste 0 951.1 -0.5 58
2019-04-13 04:00:00 13.4 10 Oeste 21 Oeste 0 950.8 -0.8 47
2019-04-13 03:00:00 13.7 12 Oeste 19 Oeste 0 951.2 -0.1 47
2019-04-13 02:00:00 14.1 11 Oeste 20 Oeste 0 951.6 0.6 45
2019-04-13 01:00:00 13.8 12 Oeste 15 Oeste 0 951.6 1.1 48
2019-04-13 00:00:00 13.3 9 Oeste 13 Sudoeste 0 951.3 1.4 47
2019-04-12 23:00:00 13.4 9 Sudoeste 10 Sudoeste 0 951 1.4 47
2019-04-12 22:00:00 14 9 Sudoeste 10 Sudoeste 0 950.5 0.8 44
2019-04-12 21:00:00 14.4 8 Sudoeste 9 Sudoeste 0 949.9 0.1 47
2019-04-12 20:00:00 17.2 4 Sudoeste 11 Noroeste 0 949.6 -0.4 39
2019-04-12 19:00:00 17.7 4 Sur 22 Noroeste 0 949.7 -1.1 32
2019-04-12 18:00:00 18.8 10 Noroeste 23 Norte 0 949.8 -1.3 31
2019-04-12 17:00:00 18.6 8 Noroeste 18 Noroeste 0 950 -1.5 31
2019-04-12 16:00:00 18.4 11 Norte 24 Norte 0 950.8 -1 30
2019-04-12 15:00:00 18.1 11 Noroeste 28 Norte 0 951.1 -1 31
2019-04-12 14:00:00 17.3 11 Norte 20 Norte 0 951.5 -0.3 34
2019-04-12 13:00:00 16.4 5 Norte 14 Norte 0 951.8 0.2 40
2019-04-12 12:00:00 15.1 3 Nordeste 9 Este 0 952.1 0.9 47
2019-04-12 11:00:00 13.8 5 Este 11 Sudeste 0 951.8 0.9 56
2019-04-12 10:00:00 11.3 3 Norte 5 Norte 0 951.6 1 69
2019-04-12 09:00:00 9.5 3 Norte 4 Norte 0 951.2 0.8 70
2019-04-12 08:00:00 7 3 Sur 8 Oeste 0 950.9 0.5 75
2019-04-12 07:00:00 7 2 Nordeste 6 Sudoeste 0 950.6 0.1 75
2019-04-12 06:00:00 7.3 4 Sudoeste 9 Oeste 0 950.4 -0.4 73
2019-04-12 05:00:00 8.5 8 Sudoeste 10 Oeste 0 950.4 -0.5 69
2019-04-12 04:00:00 8.5 4 Sudoeste 9 Sudoeste 0 950.5 -0.5 68
2019-04-12 03:00:00 9.6 3 Sur 10 Sudoeste 0 950.8 -0.4 63
2019-04-12 02:00:00 9.5 4 Sudoeste 15 Oeste 0 950.9 -0.5 64
2019-04-12 01:00:00 10.8 10 Sur 14 Sur 0 951 -0.2 58
2019-04-12 00:00:00 10.6 8 Sudoeste 15 Sur 0 951.2 1 64
2019-04-11 23:00:00 11.4 9 Sudoeste 30 Oeste 0 951.4 1.5 61
2019-04-11 22:00:00 12 12 Sudeste 24 Sudeste 0 951.2 1.3 59
2019-04-11 21:00:00 12.9 5 Sudoeste 8 Sudoeste 0 950.2 0.2 56
2019-04-11 20:00:00 15.5 5 Norte 13 Noroeste 0 949.9 -0.2 41
2019-04-11 19:00:00 15.6 4 Norte 12 Nordeste 0 949.9 -0.7 42
2019-04-11 18:00:00 16.7 6 Nordeste 15 Norte 0 950 -1 40
2019-04-11 17:00:00 16.9 10 Noroeste 21 Noroeste 0 950.1 -1.1 41
2019-04-11 16:00:00 16.2 5 Nordeste 21 Nordeste 0 950.6 -0.9 43
2019-04-11 15:00:00 15.4 7 Noroeste 17 Norte 0 951 -0.7 45
2019-04-11 14:00:00 15.1 7 Norte 17 Norte 0 951.2 -0.3 50
2019-04-11 13:00:00 14.1 6 Norte 15 Nordeste 0 951.5 0.3 60
2019-04-11 12:00:00 13.1 6 Norte 19 Norte 0 951.7 0.7 63
2019-04-11 11:00:00 12.1 4 Nordeste 9 Nordeste 0 951.5 0.9 66
2019-04-11 10:00:00 10 4 Norte 10 Norte 0 951.2 1.1 76
2019-04-11 09:00:00 8 3 Noroeste 6 Oeste 0 951 0.9 80
2019-04-11 08:00:00 5.7 2 Sur 4 Sur 0 950.6 0.7 89
2019-04-11 07:00:00 6.1 2 Sur 6 Sur 0 950.1 0.6 85
2019-04-11 06:00:00 6.7 2 Sur 6 Sudoeste 0 950.1 0.5 85
2019-04-11 05:00:00 7.1 3 Sudoeste 13 Norte 0 949.9 0.1 80
2019-04-11 04:00:00 9.1 7 Oeste 12 Oeste 0 949.5 -0.9 71
2019-04-11 03:00:00 9.5 6 Sudoeste 19 Sur 0 949.6 -0.9 69
2019-04-11 02:00:00 10.2 14 Sur 26 Sur 0 949.8 -0.8 66
2019-04-11 01:00:00 9.4 9 Sur 19 Sur 0 950.4 1.2 71
2019-04-11 00:00:00 9.2 8 Sudeste 13 Sudeste 0 950.5 2.3 71
2019-04-10 23:00:00 9.9 6 Oeste 29 Noroeste 0 950.6 2.8 71
2019-04-10 22:00:00 12.6 18 Oeste 27 Oeste 0 949.2 1.6 55
2019-04-10 21:00:00 12.2 14 Oeste 22 Oeste 0 948.2 0.6 64
2019-04-10 20:00:00 13.2 10 Oeste 26 Oeste 0 947.8 -0.3 59
2019-04-10 19:00:00 13.2 14 Oeste 30 Oeste 0 947.6 -1.2 59
2019-04-10 18:00:00 13.8 11 Oeste 29 Oeste 0 947.6 -1.6 58
2019-04-10 17:00:00 13.7 13 Oeste 30 Noroeste 0 948.1 -1.3 58
2019-04-10 16:00:00 13.2 15 Noroeste 30 Noroeste 0 948.8 -0.9 60
2019-04-10 15:00:00 11.6 14 Noroeste 27 Noroeste 0 949.2 -0.7 65
2019-04-10 14:00:00 11.2 12 Oeste 25 Noroeste 0 949.4 -0.3 62
2019-04-10 13:00:00 10.8 13 Noroeste 31 Noroeste 0 949.7 0 65
2019-04-10 12:00:00 10.2 15 Noroeste 30 Noroeste 0 949.9 0.3 70
2019-04-10 11:00:00 10.6 12 Noroeste 30 Noroeste 0 949.7 0.6 67
2019-04-10 10:00:00 9.2 15 Noroeste 30 Noroeste 0 949.7 0.8 74
2019-04-10 09:00:00 7.7 12 Oeste 30 Oeste 0 949.6 0.7 84
2019-04-10 08:00:00 7.9 13 Oeste 24 Oeste 0 949.1 -0.1 83
2019-04-10 07:00:00 7.6 12 Oeste 23 Oeste 0 948.9 -0.6 83
2019-04-10 06:00:00 7.7 11 Oeste 24 Oeste 0 948.9 -0.8 82
2019-04-10 05:00:00 8.2 11 Oeste 24 Oeste 0 949.2 -0.5 82
2019-04-10 04:00:00 8.9 13 Oeste 33 Oeste 0 949.5 -0.3 83
2019-04-10 03:00:00 9.5 17 Oeste 31 Oeste 0 949.7 -0.1 83
2019-04-10 02:00:00 9.8 17 Oeste 32 Oeste 0 949.7 0 85
2019-04-10 01:00:00 9.4 15 Oeste 32 Oeste 0.8 949.8 0.4 85
2019-04-10 00:00:00 10.8 17 Oeste 32 Oeste 0 949.8 1.3 71
2019-04-09 23:00:00 10.3 16 Oeste 30 Oeste 0 949.7 1.6 80
2019-04-09 22:00:00 10.4 14 Oeste 35 Oeste 0.4 949.4 1.4 87
2019-04-09 21:00:00 10.4 8 Noroeste 35 Noroeste 0 948.5 0.5 80
2019-04-09 20:00:00 12.5 14 Oeste 42 Oeste 0 948.1 -0.3 69
2019-04-09 19:00:00 13.1 21 Oeste 45 Oeste 0 948 -0.7 60
2019-04-09 18:00:00 14.5 19 Oeste 42 Oeste 0 948 -1.2 60
2019-04-09 17:00:00 14.1 24 Oeste 42 Sudoeste 0 948.4 -1.4 55
2019-04-09 16:00:00 14.1 20 Oeste 44 Oeste 0 948.7 -1.4 58
2019-04-09 15:00:00 13.9 22 Oeste 44 Oeste 0 949.2 -1.2 53
2019-04-09 14:00:00 10.6 15 Oeste 37 Noroeste 0.6 949.8 -0.7 85
2019-04-09 13:00:00 11.8 14 Oeste 30 Oeste 0 950.1 -0.5 79
2019-04-09 12:00:00 11.4 15 Oeste 33 Oeste 0 950.4 0 68
2019-04-09 11:00:00 11 11 Oeste 23 Noroeste 0 950.5 0.4 71
2019-04-09 10:00:00 9.6 6 Oeste 18 Oeste 0 950.6 0.9 76
2019-04-09 09:00:00 8.7 6 Oeste 18 Oeste 0 950.4 0.8 80
2019-04-09 08:00:00 7.7 8 Sudoeste 20 Noroeste 0 950.1 0.4 81
2019-04-09 07:00:00 8 12 Oeste 21 Oeste 0 949.7 0 87
2019-04-09 06:00:00 8.4 9 Oeste 20 Oeste 0 949.6 -0.1 87
2019-04-09 05:00:00 8.8 12 Oeste 20 Oeste 0 949.7 0.4 84
2019-04-09 04:00:00 9.4 8 Oeste 23 Noroeste 0 949.7 0.5 83
2019-04-09 03:00:00 9.6 13 Oeste 38 Noroeste 0.2 949.7 0.9 88
2019-04-09 02:00:00 10.4 19 Oeste 45 Noroeste 0 949.3 0.7 88
2019-04-09 01:00:00 10.6 15 Oeste 36 Sudoeste 0.2 949.2 1.2 88
2019-04-09 00:00:00 11.1 15 Sudoeste 42 Oeste 0.4 948.8 1.2 85
2019-04-08 23:00:00 11.5 17 Oeste 38 Sudoeste 0 948.6 1 78
2019-04-08 22:00:00 11.6 21 Sudoeste 43 Oeste 0 948 0.7 82
2019-04-08 21:00:00 11.4 21 Oeste 44 Oeste 1.2 947.6 0.4 92
2019-04-08 20:00:00 11.7 19 Oeste 40 Oeste 5.4 947.6 -0.2 92
2019-04-08 19:00:00 12.1 12 Sudoeste 43 Oeste 1.8 947.3 -1.1 89
2019-04-08 18:00:00 14.7 18 Sudoeste 37 Oeste 0.2 947.2 -1.2 70
2019-04-08 17:00:00 15.6 15 Oeste 39 Oeste 0 947.8 -1.3 67
2019-04-08 16:00:00 15.8 12 Oeste 48 Oeste 0 948.4 -0.6 66
2019-04-08 15:00:00 14.5 12 Sudoeste 35 Oeste 0.4 948.4 -0.8 75
2019-04-08 14:00:00 13 12 Noroeste 27 Oeste 0.8 949.1 0.1 89
2019-04-08 13:00:00 14.6 8 Oeste 27 Oeste 0 949 -0.1 68
2019-04-08 12:00:00 13.5 14 Oeste 32 Oeste 0 949.2 0.3 71
2019-04-08 11:00:00 12.4 16 Oeste 36 Oeste 0 949 0.5 72
2019-04-08 10:00:00 11.3 16 Oeste 36 Oeste 0 949.1 0.8 83
2019-04-08 09:00:00 11.3 17 Oeste 41 Oeste 0 948.9 0.7 82
2019-04-08 08:00:00 11.1 18 Oeste 39 Oeste 0.4 948.5 0.2 82
2019-04-08 07:00:00 11.7 17 Oeste 33 Noroeste 0 948.3 -0.1 83
2019-04-08 06:00:00 11.7 12 Oeste 31 Oeste 0 948.2 -0.6 82
2019-04-08 05:00:00 11.7 18 Oeste 40 Oeste 0 948.3 -0.7 83
2019-04-08 04:00:00 11.5 8 Oeste 35 Oeste 0 948.4 -0.7 84
2019-04-08 03:00:00 11.9 15 Oeste 31 Oeste 0 948.8 -0.1 87
2019-04-08 02:00:00 12 14 Oeste 33 Oeste 0 949 0.2 88
2019-04-08 01:00:00 11.8 15 Oeste 40 Oeste 0.2 949.1 0.4 92
2019-04-08 00:00:00 11.7 15 Noroeste 30 Noroeste 1.6 948.9 0.5 95
2019-04-07 23:00:00 9.9 2 Nordeste 7 Este 2.2 948.8 0.5 97
2019-04-07 22:00:00 10 4 Norte 8 Nordeste 0.2 948.7 0.7 95
2019-04-07 21:00:00 10.2 4 Este 10 Sudeste 0 948.4 0.5 92
2019-04-07 20:00:00 10.6 8 Este 21 Noroeste 0 948.3 0.1 89
2019-04-07 19:00:00 12 8 Noroeste 23 Oeste 0 948 -0.1 77
2019-04-07 18:00:00 12.7 9 Oeste 28 Oeste 0 947.9 -0.4 66
2019-04-07 17:00:00 12.2 11 Oeste 30 Oeste 0 948.2 -0.2 67
2019-04-07 16:00:00 13 17 Noroeste 33 Noroeste 0 948.1 0 60
2019-04-07 15:00:00 12.6 19 Oeste 37 Noroeste 0 948.3 0.3 62
2019-04-07 14:00:00 12.2 23 Noroeste 45 Noroeste 0 948.4 0.9 61
2019-04-07 13:00:00 11.7 15 Noroeste 33 Noroeste 0 948.1 1.2 63
2019-04-07 12:00:00 10 13 Oeste 32 Sudoeste 0 948 1.9 71
2019-04-07 11:00:00 8.9 14 Oeste 32 Oeste 0 947.5 2 79
2019-04-07 10:00:00 8.2 14 Oeste 45 Oeste 0 946.9 2.1 80
2019-04-07 09:00:00 7.8 18 Oeste 41 Oeste 0 946.1 2.1 82
2019-04-07 08:00:00 7.5 18 Oeste 44 Oeste 0 945.5 1.5 83
2019-04-07 07:00:00 7.5 20 Oeste 48 Oeste 0.2 944.8 1.1 83
2019-04-07 06:00:00 7.5 23 Oeste 46 Oeste 0 944 0 81
2019-04-07 05:00:00 7.2 21 Oeste 51 Oeste 0 944 0.4 86
2019-04-07 04:00:00 6.9 24 Oeste 49 Oeste 1.4 943.7 -0.1 90
2019-04-07 03:00:00 7.9 21 Oeste 49 Oeste 0 944 0.1 80
2019-04-07 02:00:00 7.9 23 Oeste 46 Oeste 0 943.6 -0.2 83
2019-04-07 01:00:00 7.9 17 Oeste 45 Sudoeste 0 943.8 0.8 76
2019-04-07 00:00:00 7.8 13 Oeste 30 Oeste 0 943.9 1.7 80
2019-04-06 23:00:00 7.5 16 Oeste 42 Oeste 0 943.8 1.6 81
2019-04-06 22:00:00 7.7 16 Oeste 32 Oeste 0 943 2 76
2019-04-06 21:00:00 7 17 Oeste 32 Oeste 0 942.2 1.9 87
2019-04-06 20:00:00 5.8 10 Oeste 44 Oeste 6 942.2 1.7 95
2019-04-06 19:00:00 7.5 15 Oeste 43 Sudoeste 1.2 941 0.4 83
2019-04-06 18:00:00 9.6 21 Oeste 43 Oeste 0 940.3 -0.4 68
2019-04-06 17:00:00 8.4 19 Sudoeste 53 Oeste 1.2 940.5 -0.7 80
2019-04-06 16:00:00 9.6 17 Oeste 39 Oeste 0 940.6 -1.1 77
2019-04-06 15:00:00 10.7 17 Noroeste 46 Oeste 0 940.7 -1.2 65
2019-04-06 14:00:00 10.3 17 Oeste 45 Oeste 0.2 941.2 -0.2 74
2019-04-06 13:00:00 8.5 24 Oeste 42 Oeste 0.4 941.7 0.5 78
2019-04-06 12:00:00 7.4 22 Oeste 42 Noroeste 2.4 941.9 0.7 92
2019-04-06 11:00:00 8.6 17 Oeste 42 Oeste 0 941.4 0.5 76
2019-04-06 10:00:00 7.6 19 Oeste 39 Oeste 0 941.2 0.8 71
2019-04-06 09:00:00 7 11 Oeste 35 Oeste 0 941.2 1.2 74
2019-04-06 08:00:00 6.6 15 Oeste 44 Oeste 0 940.9 1.2 79
2019-04-06 07:00:00 7 23 Oeste 43 Oeste 0 940.4 0.6 74
2019-04-06 06:00:00 6.5 19 Oeste 41 Oeste 0 940 0 79
2019-04-06 05:00:00 6 20 Oeste 36 Oeste 0 939.7 -0.3 85
2019-04-06 04:00:00 6 18 Oeste 45 Oeste 0 939.8 0.2 84
2019-04-06 03:00:00 6.1 20 Oeste 40 Oeste 0 940 1 83
2019-04-06 02:00:00 6.1 19 Oeste 45 Oeste 0 940 1.5 84
2019-04-06 01:00:00 6 26 Oeste 48 Oeste 0.6 939.6 1.6 88
2019-04-06 00:00:00 6.6 24 Oeste 53 Oeste 0 939 1.9 77
2019-04-05 23:00:00 7.3 23 Oeste 52 Oeste 0 938.5 1.8 73
2019-04-05 22:00:00 7.9 23 Oeste 44 Oeste 0 938 2.2 69
2019-04-05 21:00:00 8.4 18 Oeste 44 Oeste 0 937.1 1.4 62
2019-04-05 20:00:00 8.6 17 Oeste 40 Oeste 0 936.7 1.6 66
2019-04-05 19:00:00 6.9 9 Oeste 46 Oeste 1 935.8 0.3 85
2019-04-05 18:00:00 8.1 22 Oeste 56 Oeste 1 935.7 0.5 76
2019-04-05 17:00:00 11.2 18 Oeste 32 Oeste 0 935.1 -1 61
2019-04-05 16:00:00 9.6 13 Noroeste 39 Oeste 0.8 935.5 -0.2 84
2019-04-05 15:00:00 9.4 22 Sudoeste 41 Sudoeste 0.8 935.2 -1.3 71
2019-04-05 14:00:00 8.1 16 Sudoeste 36 Sudoeste 1.6 936.1 0 79
2019-04-05 13:00:00 8.8 18 Sur 44 Sudoeste 0.2 935.7 0 76
2019-04-05 12:00:00 7.3 9 Sudoeste 28 Oeste 3.6 936.5 0.9 86
2019-04-05 11:00:00 8.1 9 Sudeste 32 Oeste 1.6 936.1 0.1 79
2019-04-05 10:00:00 8.8 10 Sudoeste 35 Sudeste 0.2 935.7 -0.6 77
2019-04-05 09:00:00 8.4 5 Sur 32 Oeste 0 935.6 -1 77
2019-04-05 08:00:00 8.9 4 Sudeste 30 Sudeste 0 936 -1.1 65
2019-04-05 07:00:00 8.9 10 Oeste 35 Sudoeste 0 936.3 -1 65
2019-04-05 06:00:00 8.6 12 Oeste 45 Oeste 0 936.6 -1 64
2019-04-05 05:00:00 8.8 10 Sudoeste 42 Sudoeste 0 937.1 -0.4 61
2019-04-05 04:00:00 9.4 20 Sur 40 Sur 0 937.3 -0.2 57
2019-04-05 03:00:00 9.4 14 Sudoeste 29 Sudoeste 0 937.6 0.2 46
2019-04-05 02:00:00 9.8 12 Sudoeste 30 Oeste 0 937.5 0.3 43
2019-04-05 01:00:00 10.3 13 Sur 32 Sudoeste 0 937.5 0.7 41
2019-04-05 00:00:00 10.5 13 Sudoeste 30 Sudoeste 0 937.4 1 41
2019-04-04 23:00:00 11.4 15 Sudoeste 29 Sudoeste 0 937.2 1.1 41
2019-04-04 22:00:00 12 10 Oeste 23 Oeste 0 936.8 0.9 37
2019-04-04 21:00:00 12.8 11 Oeste 30 Noroeste 0 936.4 0.4 32
2019-04-04 20:00:00 14.3 10 Oeste 32 Noroeste 0 936.1 -0.2 30
2019-04-04 19:00:00 15.3 20 Noroeste 40 Noroeste 0 935.9 -0.5 27
2019-04-04 18:00:00 16 19 Noroeste 43 Noroeste 0 936 -1 28
2019-04-04 17:00:00 16.2 23 Noroeste 40 Noroeste 0 936.3 -1.4 29
2019-04-04 16:00:00 16.6 22 Noroeste 42 Noroeste 0 936.4 -1.9 31
2019-04-04 15:00:00 16.7 19 Noroeste 35 Norte 0 937 -1.4 31
2019-04-04 14:00:00 15.9 7 Nordeste 20 Noroeste 0 937.7 -0.4 33
2019-04-04 13:00:00 14.2 8 Norte 18 Noroeste 0 938.3 0.2 37
2019-04-04 12:00:00 13.1 10 Norte 23 Nordeste 0 938.4 0.5 40
2019-04-04 11:00:00 10.9 8 Norte 17 Norte 0 938.1 1 45
2019-04-04 10:00:00 9.7 4 Norte 10 Norte 0 938.1 1.3 52
2019-04-04 09:00:00 7.6 4 Este 9 Nordeste 0 937.9 1.5 60
2019-04-04 08:00:00 6.1 2 Sudoeste 12 Sur 0 937.1 0.6 60
2019-04-04 07:00:00 6.3 6 Sur 9 Sur 0 936.8 -0.2 59
2019-04-04 06:00:00 7.5 5 Sur 14 Sudoeste 0 936.4 -1 54
2019-04-04 05:00:00 9.2 8 Oeste 15 Sudoeste 0 936.5 -1.4 43
2019-04-04 04:00:00 9.3 10 Oeste 13 Oeste 0 937 -1.4 45
2019-04-04 03:00:00 10 10 Oeste 21 Oeste 0 937.4 -1 47
2019-04-04 02:00:00 10.2 13 Oeste 18 Oeste 0 937.9 -0.4 52
2019-04-04 01:00:00 11.2 12 Oeste 20 Oeste 0 938.4 0.6 54
2019-04-04 00:00:00 12.5 13 Oeste 26 Oeste 0 938.4 1.1 53
2019-04-03 23:00:00 14.2 11 Oeste 36 Oeste 0 938.3 1.2 46
2019-04-03 22:00:00 14.9 12 Oeste 27 Oeste 0 937.8 0.3 43
2019-04-03 21:00:00 15.7 12 Oeste 32 Oeste 0 937.3 -0.6 45
2019-04-03 20:00:00 17 18 Oeste 40 Oeste 0 937.1 -1.1 41
2019-04-03 19:00:00 18.3 20 Oeste 41 Oeste 0 937.5 -1.5 36
2019-04-03 18:00:00 19.2 18 Oeste 47 Noroeste 0 937.9 -2.2 37
2019-04-03 17:00:00 19.8 21 Oeste 42 Oeste 0 938.2 -2.5 34
2019-04-03 16:00:00 20 21 Oeste 44 Noroeste 0 939 -2.6 36
2019-04-03 15:00:00 19.9 13 Oeste 38 Noroeste 0 940.1 -2.2 40
2019-04-03 14:00:00 18.6 19 Noroeste 36 Noroeste 0 940.7 -2 42
2019-04-03 13:00:00 17.3 11 Noroeste 20 Norte 0 941.6 -1.5 58
2019-04-03 12:00:00 16.2 6 Norte 12 Nordeste 0 942.3 -1.4 65
2019-04-03 11:00:00 15.7 4 Nordeste 10 Este 0 942.7 -1.3 63
2019-04-03 10:00:00 13.8 4 Este 7 Sudeste 0 943.1 -1.1 70
2019-04-03 09:00:00 11.7 0 Calma 6 Norte 0 943.7 -0.7 78
2019-04-03 08:00:00 11.9 5 Oeste 16 Sudoeste 0 944 -1 74
2019-04-03 07:00:00 11.9 3 Sur 16 Oeste 0 944.2 -1.3 74
2019-04-03 06:00:00 12.8 8 Oeste 16 Sudoeste 0 944.4 -2 70
2019-04-03 05:00:00 12.7 6 Oeste 16 Oeste 0 945 -2.1 71
2019-04-03 04:00:00 12 4 Oeste 9 Oeste 0 945.5 -1.9 74
2019-04-03 03:00:00 12.2 3 Sudeste 11 Noroeste 0 946.4 -1.2 72
2019-04-03 02:00:00 13.4 5 Oeste 18 Sudoeste 0 947.1 -0.4 69
2019-04-03 01:00:00 13.7 8 Sudoeste 18 Sudoeste 0 947.4 0.1 65
2019-04-03 00:00:00 13.8 7 Sudoeste 15 Sudoeste 0 947.6 0.5 59
2019-04-02 23:00:00 13.4 3 Sudoeste 11 Oeste 0 947.5 0.5 58
2019-04-02 22:00:00 14.3 7 Oeste 18 Sudoeste 0 947.3 0.5 55
2019-04-02 21:00:00 14.7 7 Oeste 13 Oeste 0 947.1 0 57
2019-04-02 20:00:00 16.7 9 Oeste 22 Noroeste 0 947 -0.6 50
2019-04-02 19:00:00 18.1 10 Noroeste 26 Noroeste 0 946.8 -1.4 47
2019-04-02 18:00:00 18.4 13 Noroeste 28 Noroeste 0 947.1 -1.7 47
2019-04-02 17:00:00 17.9 17 Noroeste 28 Norte 0 947.6 -2 49
2019-04-02 16:00:00 18.1 14 Noroeste 25 Norte 0 948.2 -1.9 53
2019-04-02 15:00:00 16.3 10 Norte 18 Noroeste 0 948.8 -1.7 64
2019-04-02 14:00:00 15.2 4 Norte 14 Norte 0 949.6 -0.5 70
2019-04-02 13:00:00 14.4 6 Norte 17 Norte 0 950.1 0.3 75
2019-04-02 12:00:00 15 5 Norte 13 Norte 0 950.5 0.8 67
2019-04-02 11:00:00 14.1 5 Este 9 Norte 0 950.1 0.6 71
2019-04-02 10:00:00 11.5 4 Norte 8 Norte 0 949.8 0.8 88
2019-04-02 09:00:00 9.7 2 Sudoeste 6 Sudoeste 0 949.7 0.6 94
2019-04-02 08:00:00 8.8 5 Sudoeste 8 Sudoeste 0 949.5 0.4 94
2019-04-02 07:00:00 8.9 6 Sur 12 Oeste 0 949 -0.6 92
2019-04-02 06:00:00 9.1 9 Oeste 14 Oeste 0 949.1 -0.7 90
2019-04-02 05:00:00 9.9 8 Sur 12 Sudoeste 0 949.1 -0.8 88
2019-04-02 04:00:00 10.6 7 Sudoeste 16 Oeste 0 949.6 -0.4 81
2019-04-02 03:00:00 11.8 8 Sudoeste 13 Sudoeste 0 949.8 0 77
2019-04-02 02:00:00 12.3 4 Oeste 10 Sudoeste 0 949.9 0.4 78
2019-04-02 01:00:00 12.8 7 Oeste 17 Oeste 0 950 1.3 74
2019-04-02 00:00:00 12.9 7 Sudoeste 20 Sudoeste 0 949.8 1.9 70
2019-04-01 23:00:00 12.6 3 Oeste 19 Oeste 0 949.5 2.3 75
2019-04-01 22:00:00 12.8 7 Oeste 14 Oeste 0 948.7 1.8 78
2019-04-01 21:00:00 13 2 Sur 17 Oeste 0 947.9 1.1 79
2019-04-01 20:00:00 13.6 11 Oeste 21 Sudoeste 0 947.2 0.9 78
2019-04-01 19:00:00 13.2 10 Oeste 28 Oeste 0.4 946.9 0.3 84
2019-04-01 18:00:00 15 14 Oeste 35 Noroeste 0 946.8 0 69
2019-04-01 17:00:00 15.7 12 Noroeste 33 Noroeste 0 946.3 -1 64
2019-04-01 16:00:00 15.6 7 Norte 19 Nordeste 0 946.6 -1 64
2019-04-01 15:00:00 16.4 7 Nordeste 19 Noroeste 0 946.8 -1 64
2019-04-01 14:00:00 15.1 5 Nordeste 14 Noroeste 0 947.3 0 74
2019-04-01 13:00:00 15.3 6 Noroeste 13 Noroeste 0 947.6 0.9 70
2019-04-01 12:00:00 13.9 8 Noroeste 12 Noroeste 0 947.8 1.5 79
2019-04-01 11:00:00 13.5 5 Norte 9 Noroeste 0 947.3 1.4 78
2019-04-01 10:00:00 11.5 4 Norte 6 Norte 0 946.7 1.2 93
2019-04-01 09:00:00 10.3 3 Sur 7 Sudoeste 0.2 946.3 0.9 97
2019-04-01 08:00:00 10.2 2 Sudeste 5 Este 0.2 945.9 0.5 96
2019-04-01 07:00:00 10.4 3 Este 5 Este 0.6 945.5 0 95
2019-04-01 06:00:00 10.4 2 Sur 3 Sudoeste 0 945.4 -0.2 88
2019-04-01 05:00:00 10.5 0 Calma 6 Sudeste 0 945.4 -0.3 88
2019-04-01 04:00:00 10.3 2 Oeste 9 Sudeste 0 945.5 0.2 87
2019-04-01 03:00:00 10.4 5 Sudeste 10 Sudeste 0 945.6 0.2 86
2019-04-01 02:00:00 10.6 5 Sudeste 9 Oeste 0 945.7 0.4 82
2019-04-01 01:00:00 10.9 5 Sur 9 Sur 0 945.3 0.6 82
2019-04-01 00:00:00 9.9 3 Sudoeste 8 Sudoeste 0 945.4 1.4 86
2019-03-31 23:00:00 10.3 5 Oeste 8 Oeste 0 945.3 1.6 85
2019-03-31 22:00:00 10.6 3 Sudoeste 10 Sur 0 944.7 1.2 84
2019-03-31 21:00:00 11.2 5 Sur 8 Sur 0 944 0.4 82
2019-03-31 20:00:00 12.8 5 Sudeste 12 Sudeste 0 943.7 -0.2 72
2019-03-31 19:00:00 13.2 7 Sudeste 11 Este 0 943.5 -0.6 77
2019-03-31 18:00:00 13.4 5 Este 12 Norte 0 943.6 -1 75
2019-03-31 17:00:00 14 10 Norte 17 Norte 0 943.9 -1.3 75
2019-03-31 16:00:00 14 6 Norte 14 Norte 0 944.1 -1.4 78
2019-03-31 15:00:00 13.7 6 Norte 12 Noroeste 0 944.6 -1.1 79
2019-03-31 14:00:00 11.9 6 Norte 11 Norte 0 945.2 -0.3 90
2019-03-31 13:00:00 11.6 6 Norte 17 Norte 0.2 945.5 0.2 92
2019-03-31 12:00:00 10.7 0 Calma 10 Nordeste 0 945.7 0.4 91
2019-03-31 11:00:00 10.8 3 Sudeste 9 Sudeste 0 945.5 0.1 88
2019-03-31 10:00:00 10.7 0 Calma 12 Sur 0 945.3 -0.3 92
2019-03-31 09:00:00 10.3 2 Sur 10 Sur 0 945.3 -0.6 95
2019-03-31 08:00:00 9.9 8 Sur 15 Sudeste 1.2 945.4 -1 93
2019-03-31 07:00:00 10 6 Sudeste 13 Este 1.4 945.6 -1.4 94
2019-03-31 06:00:00 10.4 8 Este 19 Sudeste 0.2 945.9 -1.6 91
2019-03-31 05:00:00 10.7 12 Sudeste 22 Sudeste 0.2 946.4 -1.4 86
2019-03-31 03:00:00 11.7 3 Sudeste 17 Sudeste 0 947.5 -0.8 83
2019-03-31 01:00:00 11.4 7 Sudeste 17 Sudeste 0.2 947.8 0.3 87
2019-03-31 00:00:00 11.8 8 Sudoeste 14 Sur 2.4 948.3 1 89
2019-03-30 23:00:00 14.2 5 Oeste 15 Norte 0.8 948.3 0.5 74
2019-03-30 22:00:00 15.5 6 Sudeste 27 Sudeste 0 947.5 0.1 53
2019-03-30 21:00:00 14.5 15 Sur 32 Sudeste 0 947.3 0.9 61
2019-03-30 20:00:00 13 21 Sur 45 Este 2.6 947.8 1.3 73
2019-03-30 19:00:00 16.3 14 Sur 33 Sur 0.6 947.4 0.6 56
2019-03-30 18:00:00 20.9 4 Norte 13 Norte 0 946.4 -1.2 30
2019-03-30 17:00:00 21.3 3 Este 16 Norte 0 946.5 -2.1 30
2019-03-30 16:00:00 21.6 6 Este 27 Norte 0 946.8 -2.9 29
2019-03-30 15:00:00 21.8 6 Este 21 Norte 0 947.6 -3.1 28
2019-03-30 14:00:00 20.8 8 Norte 21 Nordeste 0 948.6 -2.8 29
2019-03-30 13:00:00 19.3 6 Este 14 Norte 0 949.7 -1.7 31
2019-03-30 12:00:00 18.1 7 Este 18 Nordeste 0 950.7 -0.8 34
2019-03-30 11:00:00 16.5 5 Nordeste 26 Este 0 951.4 0.1 35
2019-03-30 10:00:00 14.7 18 Sudeste 29 Sudeste 0 951.4 0.2 37
2019-03-30 09:00:00 13.3 14 Sudeste 34 Sur 0 951.5 0.2 39
2019-03-30 08:00:00 11.3 22 Sur 31 Sudeste 0 951.3 -0.5 44
2019-03-30 07:00:00 10.4 19 Sur 37 Sur 0 951.2 -1.1 47
2019-03-30 06:00:00 10.7 24 Sur 36 Sur 0 951.3 -1.4 46
2019-03-30 05:00:00 10.9 23 Sur 41 Sur 0 951.8 -0.8 45
2019-03-30 04:00:00 11.2 20 Sur 40 Sudeste 0 952.3 -1 53
2019-03-30 03:00:00 11.7 25 Sur 39 Sur 0 952.7 -0.6 56
2019-03-30 02:00:00 11.7 19 Sur 34 Sur 0 952.6 -0.8 59
2019-03-30 01:00:00 12.1 15 Sudeste 35 Sudeste 0 953.3 0 56
2019-03-30 00:00:00 13 24 Sur 42 Sudeste 0 953.3 0.3 52
2019-03-29 23:00:00 14 23 Sur 36 Sur 0 953.4 1 48
2019-03-29 22:00:00 14.6 15 Sur 27 Sur 0 953.3 1.1 45
2019-03-29 21:00:00 15.1 16 Sur 22 Sur 0 953 1.1 42
2019-03-29 20:00:00 15.6 8 Sudoeste 11 Oeste 0 952.4 0.6 33
2019-03-29 19:00:00 17.7 3 Oeste 15 Norte 0 952.2 0 32
2019-03-29 18:00:00 18.6 9 Norte 22 Norte 0 951.9 -0.9 28
2019-03-29 17:00:00 20.2 11 Norte 21 Norte 0 951.8 -1.6 26
2019-03-29 16:00:00 20.2 7 Nordeste 22 Nordeste 0 952.2 -2 27
2019-03-29 15:00:00 19.7 10 Este 26 Este 0 952.8 -2 29
2019-03-29 14:00:00 18.8 8 Sudeste 24 Sudeste 0 953.4 -1.8 30
2019-03-29 13:00:00 17.8 10 Sudeste 23 Este 0 954.2 -1.1 31
2019-03-29 12:00:00 14.9 12 Sudeste 30 Este 0 954.8 -0.3 35
2019-03-29 11:00:00 14.7 14 Sudeste 36 Sudeste 0 955.2 0.2 35
2019-03-29 10:00:00 12.7 14 Sudeste 41 Sudeste 0 955.3 0.5 37
2019-03-29 09:00:00 11 20 Sudeste 41 Este 0 955.1 0.7 39
2019-03-29 08:00:00 10.2 19 Sur 41 Sudeste 0 955 0.7 38
2019-03-29 07:00:00 9.5 22 Sur 44 Sur 0 954.8 0.3 34
2019-03-29 06:00:00 9.4 16 Sur 43 Sudeste 0 954.4 -0.3 32
2019-03-29 05:00:00 9.6 17 Sudeste 34 Sur 0 954.3 -0.8 31
2019-03-29 04:00:00 10 17 Sudeste 41 Sudeste 0 954.5 -0.9 29
2019-03-29 03:00:00 10.3 22 Sur 40 Sudeste 0 954.7 -0.9 28
2019-03-29 02:00:00 10.7 22 Sudeste 43 Este 0 955.1 -0.6 28
2019-03-29 01:00:00 11.2 21 Sudeste 43 Sur 0 955.4 0 25
2019-03-29 00:00:00 12 17 Sudeste 65 Sudeste 0 955.6 0.3 22
2019-03-28 23:00:00 12.7 26 Sudeste 61 Sudeste 0 955.7 1.1 23
2019-03-28 22:00:00 13.4 30 Sudeste 60 Sudeste 0 955.4 1.5 25
2019-03-28 21:00:00 14 24 Sudeste 53 Este 0 955.3 1.7 31
2019-03-28 20:00:00 15.3 26 Sudeste 46 Sudeste 0 954.6 1.1 27
2019-03-28 19:00:00 16.9 18 Sudeste 38 Sudeste 0 953.9 -0.1 20
2019-03-28 18:00:00 18 20 Sudeste 34 Sudeste 0 953.6 -1 18
2019-03-28 17:00:00 19 18 Sudeste 35 Sudeste 0 953.5 -2 15
2019-03-28 16:00:00 19.6 14 Sudeste 30 Este 0 954 -2.4 13
2019-03-28 15:00:00 19.7 11 Este 37 Sudeste 0 954.6 -2.3 13
2019-03-28 14:00:00 18.4 21 Sudeste 37 Sudeste 0 955.5 -2 14
2019-03-28 13:00:00 17.7 13 Sudeste 39 Este 0 956.4 -0.8 16
2019-03-28 12:00:00 16.4 20 Este 46 Este 0 956.9 0.1 16
2019-03-28 11:00:00 14.3 30 Sudeste 51 Sudeste 0 957.5 1 20
2019-03-28 10:00:00 13.3 22 Sudeste 46 Este 0 957.2 1.3 21
2019-03-28 09:00:00 11.2 26 Este 56 Sudeste 0 956.8 0.9 27
2019-03-28 08:00:00 9.9 22 Sudeste 49 Sudeste 0 956.5 0.7 28
2019-03-28 07:00:00 9.8 29 Sudeste 55 Sudeste 0 955.9 0 20
2019-03-28 06:00:00 10.2 22 Sudeste 36 Sudeste 0 955.9 -0.2 18
2019-03-28 05:00:00 10 17 Sur 31 Sudeste 0 955.8 -0.6 24
2019-03-28 04:00:00 10.3 14 Sudeste 36 Sudeste 0 955.9 -0.5 30
2019-03-28 03:00:00 11.2 19 Sudeste 39 Sudeste 0 956.1 0.2 31
2019-03-28 02:00:00 11.3 10 Sudeste 24 Sur 0 956.4 1.1 39
2019-03-28 01:00:00 11.8 6 Sudeste 30 Sudeste 0 956.4 1.5 39
2019-03-28 00:00:00 12.7 17 Sudeste 44 Sudeste 0 955.9 1.9 34
2019-03-27 23:00:00 13.6 23 Sudeste 44 Sudeste 0 955.3 2.1 31
2019-03-27 22:00:00 14 15 Sudeste 40 Sudeste 0 954.9 2.4 32
2019-03-27 21:00:00 14.9 14 Sudeste 39 Este 0 954 2 30
2019-03-27 20:00:00 15.8 16 Sudeste 32 Sudeste 0 953.2 1.5 25
2019-03-27 19:00:00 16.7 17 Sudeste 29 Sudeste 0 952.5 0.6 21
2019-03-27 18:00:00 17.7 12 Sudeste 26 Sudeste 0 952 -0.2 18
2019-03-27 17:00:00 18.9 10 Este 29 Norte 0 951.7 -0.9 17
2019-03-27 16:00:00 19.6 9 Nordeste 27 Este 0 951.9 -1.1 19
2019-03-27 15:00:00 19.3 9 Este 34 Este 0 952.2 -1.2 17
2019-03-27 14:00:00 17.6 13 Sudeste 42 Sudeste 0 952.6 -1 20
2019-03-27 13:00:00 16.7 18 Sudeste -- -- 0 953 -0.3 25
2019-03-27 12:00:00 16 18 Sudeste 32 Sudeste 0 953.4 0.3 24
2019-03-27 11:00:00 14 18 Sudeste 42 Este 0 953.6 1.1 29
2019-03-27 10:00:00 12 24 Sudeste 46 Sudeste 0 953.3 1.5 34
2019-03-27 09:00:00 10.6 30 Sudeste 60 Sudeste 0 953.1 1.7 36
2019-03-27 08:00:00 9.5 35 Sudeste 76 Sudeste 0 952.5 1.5 39
2019-03-27 07:00:00 9.1 40 Sudeste 77 Sudeste 0 951.8 0.9 39
2019-03-27 06:00:00 9.7 30 Sudeste 69 Sudeste 0 951.4 1 35
2019-03-27 05:00:00 10.1 41 Sudeste 81 Sudeste 0 951 1.2 33
2019-03-27 04:00:00 10 55 Sudeste 84 Sudeste 0 950.9 1.2 40
2019-03-27 03:00:00 11.5 46 Sudeste 76 Sudeste 0 950.4 0.7 41
2019-03-27 02:00:00 12.7 49 Sudeste 80 Sudeste 0 949.8 0.2 35
2019-03-27 01:00:00 13.6 37 Sudeste 73 Sudeste 0 949.7 0.7 29
2019-03-27 00:00:00 13.9 40 Sudeste 71 Sudeste 0 949.7 1.3 33
2019-03-26 23:00:00 14 27 Sudeste 60 Sudeste 0 949.6 2.4 45
2019-03-26 22:00:00 14.7 27 Sudeste 62 Sudeste 0 949 2.5 45
2019-03-26 21:00:00 15 28 Sudeste 54 Este 0 948.4 2.3 47
2019-03-26 20:00:00 15.9 34 Sudeste 58 Sudeste 0 947.2 1.5 43
2019-03-26 19:00:00 17.6 32 Sudeste 60 Sudeste 0 946.5 0.9 36
2019-03-26 18:00:00 19 37 Sudeste 60 Sudeste 0 946.1 0.4 30
2019-03-26 17:00:00 20.7 23 Sudeste 52 Sudeste 0 945.7 -0.4 26
2019-03-26 16:00:00 21.3 25 Sudeste 48 Sudeste 0 945.6 -0.8 22
2019-03-26 15:00:00 21.7 26 Sudeste 46 Sudeste 0 945.7 -1.1 20
2019-03-26 14:00:00 22 26 Sudeste 47 Sudeste 0 946.1 -0.5 20
2019-03-26 13:00:00 21.5 24 Sudeste 43 Sudeste 0 946.4 -0.1 21
2019-03-26 12:00:00 20.4 26 Sudeste 51 Sudeste 0 946.8 0.5 21
2019-03-26 11:00:00 19.3 27 Sudeste 56 Sudeste 0 946.6 0.2 19
2019-03-26 10:00:00 18.6 27 Sudeste 53 Sudeste 0 946.5 0.3 16
2019-03-26 09:00:00 17.7 22 Sudeste 51 Sudeste 0 946.3 0.1 17
2019-03-26 08:00:00 16.7 17 Sudeste 42 Sudeste 0 946.4 0.1 18
2019-03-26 07:00:00 16.4 22 Sudeste 44 Sudeste 0 946.2 -0.2 18
2019-03-26 06:00:00 16.5 22 Sudeste 49 Sudeste 0 946.2 -0.9 20
2019-03-26 05:00:00 16.3 21 Sudeste 43 Sudeste 0 946.3 -1.2 22
2019-03-26 04:00:00 16.2 20 Sudeste 33 Sudeste 0 946.4 -1.5 29
2019-03-26 03:00:00 16 13 Sudeste 41 Sudeste 0 947.1 -0.9 32
2019-03-26 02:00:00 16.4 19 Sudeste 46 Sur 0 947.5 -0.7 30
2019-03-26 01:00:00 16.6 20 Sudeste 44 Este 0 947.9 -0.2 30
2019-03-26 00:00:00 16.5 15 Sudeste 48 Sudeste 0 948 0.3 38
2019-03-25 23:00:00 17 23 Sudeste 48 Sudeste 0 948.2 1 40
2019-03-25 22:00:00 17.7 18 Sudeste 42 Sudeste 0 948.1 1 39
2019-03-25 21:00:00 18.7 18 Sudeste 31 Sudeste 0 947.7 0.7 34
2019-03-25 20:00:00 18.6 8 Sudeste 21 Sudeste 0 947.2 0 33
2019-03-25 19:00:00 20.7 12 Este 23 Nordeste 0 947.1 -0.6 29
2019-03-25 18:00:00 21.5 7 Este 24 Sudeste 0 947 -1.8 29
2019-03-25 17:00:00 22.3 10 Este 23 Noroeste 0 947.2 -2.7 27
2019-03-25 16:00:00 23 8 Norte 23 Norte 0 947.7 -3.3 27
2019-03-25 15:00:00 22.4 10 Norte 24 Norte 0 948.8 -3.1 28
2019-03-25 14:00:00 21.6 7 Este 19 Norte 0 949.9 -2.5 29
2019-03-25 13:00:00 19.9 7 Norte 17 Nordeste 0 951 -1.4 32
2019-03-25 12:00:00 17.9 5 Norte 11 Norte 0 951.9 0 38
2019-03-25 11:00:00 15.7 6 Norte 11 Norte 0 952.4 0.5 45
2019-03-25 10:00:00 14.2 3 Norte 22 Sudeste 0 952.4 0.8 47
2019-03-25 09:00:00 15 11 Sudeste 27 Sur 0 951.9 0.4 41
2019-03-25 08:00:00 12.9 12 Sudeste 24 Sur 0 951.9 0.3 46
2019-03-25 07:00:00 11.8 13 Sur 23 Sur 0 951.6 -0.4 50
2019-03-25 06:00:00 11.5 12 Sur 19 Sur 0 951.5 -0.7 51
2019-03-25 05:00:00 12.1 10 Sudeste 35 Sur 0 951.6 -0.9 49
2019-03-25 04:00:00 13.4 18 Sudeste 38 Sudeste 0 952 -0.6 45
2019-03-25 03:00:00 13.4 13 Sudeste 38 Sudeste 0 952.2 -0.9 45
2019-03-25 02:00:00 13.6 14 Sudeste 40 Sudeste 0 952.5 -0.7 47
2019-03-25 01:00:00 14 24 Sudeste 43 Sudeste 0 952.6 -0.5 47
2019-03-25 00:00:00 14.4 18 Sudeste 43 Sudeste 0 953.1 0.3 47
2019-03-24 23:00:00 14.8 19 Sudeste 39 Sudeste 0 953.2 1 47
2019-03-24 22:00:00 15.2 17 Sudeste 30 Sur 0 953.1 0.7 45
2019-03-24 21:00:00 15.5 13 Sudeste 43 Sudeste 0 952.8 0.7 41
2019-03-24 20:00:00 16 26 Sudeste 47 Sudeste 0 952.2 0.4 41
2019-03-24 19:00:00 16.4 10 Sudeste 30 Sudeste 0 952.4 0.2 41
2019-03-24 18:00:00 17.2 19 Sudeste 34 Sudeste 0 952.1 -0.6 40
2019-03-24 17:00:00 17.9 17 Sudeste 30 Sudeste 0 951.8 -1.4 40
2019-03-24 16:00:00 18.2 14 Sudeste 28 Este 0 952.2 -1.6 40
2019-03-24 15:00:00 18 12 Este 40 Este 0 952.7 -1.3 41
2019-03-24 14:00:00 16.5 15 Sudeste 26 Este 0 953.2 -0.9 44
2019-03-24 13:00:00 14.3 15 Este 31 Este 0 953.8 0.5 51
2019-03-24 12:00:00 14.3 20 Sudeste 35 Sudeste 0 954 1.2 50
2019-03-24 11:00:00 13.4 23 Sudeste 39 Sudeste 0 954.1 1.4 51
2019-03-24 10:00:00 12.8 22 Sudeste 47 Sudeste 0 953.3 0.9 53
2019-03-24 09:00:00 12.1 26 Sudeste 48 Sudeste 0 952.8 0.1 54
2019-03-24 08:00:00 11.7 17 Sudeste 53 Sudeste 0 952.7 0 55
2019-03-24 07:00:00 11.6 26 Sudeste 45 Sudeste 0 952.4 0 56
2019-03-24 06:00:00 11.4 16 Sudeste 47 Sudeste 0 952.7 -0.2 56
2019-03-24 05:00:00 11.7 23 Sudeste 46 Sudeste 0 952.7 -0.2 56
2019-03-24 04:00:00 11.7 24 Sudeste 44 Sudeste 0 952.4 -0.9 55
2019-03-24 03:00:00 11.6 22 Sudeste 45 Este 0 952.9 -1 57
2019-03-24 02:00:00 11.9 29 Sudeste 49 Sudeste 0 952.9 -1.3 56
2019-03-24 01:00:00 11.9 29 Sudeste 49 Sudeste 0 953.3 -1.2 60
2019-03-24 00:00:00 11.8 27 Sudeste 53 Sudeste 0 953.9 -0.3 60
2019-03-23 23:00:00 11.6 21 Sudeste 36 Sudeste 0 954.2 0.2 62
2019-03-23 22:00:00 11.3 19 Sudeste 46 Sudeste 0 954.5 1.1 65
2019-03-23 21:00:00 11.8 24 Sudeste 41 Sudeste 0 954.2 1.7 61
2019-03-23 20:00:00 12.2 16 Sudeste 44 Sudeste 0 954 1.3 58
2019-03-23 19:00:00 13.6 24 Sudeste 46 Sudeste 0 953.4 0.3 50
2019-03-23 18:00:00 14.3 28 Sudeste 44 Sudeste 0 952.5 -0.7 47
2019-03-23 17:00:00 15.3 18 Sudeste 45 Sudeste 0 952.7 -1 45
2019-03-23 16:00:00 15.1 27 Sudeste 45 Sudeste 0 953.1 -1.5 43
2019-03-23 15:00:00 16.9 20 Sudeste 37 Sudeste 0 953.2 -1.7 34
2019-03-23 14:00:00 18 18 Sudeste 48 Sudeste 0 953.7 -1.9 31
2019-03-23 13:00:00 18.8 9 Este 27 Nordeste 0 954.6 -1.2 32
2019-03-23 12:00:00 16.4 10 Nordeste 20 Nordeste 0 954.9 -0.9 38
2019-03-23 11:00:00 15.6 5 Este 22 Sudeste 0 955.6 -0.2 46
2019-03-23 10:00:00 14 13 Sudeste 24 Sudeste 0 955.8 0.3 46
2019-03-23 09:00:00 9.8 3 Norte 21 Sudeste 0 955.8 0.3 64
2019-03-23 08:00:00 8 7 Sudoeste 8 Sudoeste 0 955.8 0.1 70
2019-03-23 07:00:00 9.3 4 Noroeste 21 Sur 0 955.5 -0.5 64
2019-03-23 06:00:00 11.1 9 Sudeste 27 Sudeste 0 955.5 -0.9 57
2019-03-23 05:00:00 11.7 15 Sudeste 32 Sudeste 0 955.7 -0.9 55
2019-03-23 04:00:00 11.8 17 Sudeste 36 Sudeste 0 956 -0.5 55
2019-03-23 03:00:00 12.1 21 Sudeste 36 Sudeste 0 956.4 -0.4 54
2019-03-23 02:00:00 12.4 23 Sudeste 38 Sudeste 0 956.6 -0.2 53
2019-03-23 01:00:00 12.8 21 Sudeste 41 Sudeste 0 956.5 0.5 51
2019-03-23 00:00:00 12.7 14 Sudeste 32 Sudeste 0 956.8 1.4 50
2019-03-22 23:00:00 13.5 16 Sudeste 46 Sudeste 0 956.8 2 44
2019-03-22 22:00:00 14.5 24 Sudeste 47 Sudeste 0 956 1.4 40
2019-03-22 21:00:00 15.3 22 Sudeste 45 Sudeste 0 955.4 1.1 37
2019-03-22 20:00:00 15.5 13 Sudeste 23 Sudeste 0 954.8 0.3 36
2019-03-22 19:00:00 15.8 7 Sudoeste 12 Noroeste 0 954.6 -0.2 30
2019-03-22 18:00:00 17.3 9 Noroeste 17 Norte 0 954.3 -0.9 25
2019-03-22 17:00:00 17.8 5 Nordeste 19 Norte 0 954.5 -1.3 24
2019-03-22 16:00:00 18.9 6 Nordeste 17 Sudeste 0 954.8 -1.6 21
2019-03-22 15:00:00 18.5 11 Nordeste 22 Norte 0 955.2 -1.7 22
2019-03-22 14:00:00 17.4 6 Nordeste 21 Norte 0 955.8 -1.3 22
2019-03-22 13:00:00 16.6 7 Este 19 Norte 0 956.4 -1 27
2019-03-22 12:00:00 15.2 6 Norte 17 Norte 0 956.9 -0.4 28
2019-03-22 11:00:00 13.8 5 Este 11 Este 0 957.1 0 32
2019-03-22 10:00:00 10.7 4 Nordeste 8 Noroeste 0 957.4 0.9 44
2019-03-22 09:00:00 8 4 Norte 8 Noroeste 0 957.3 0.7 50
2019-03-22 08:00:00 6.4 5 Noroeste 23 Sur 0 957.1 0.6 54
2019-03-22 07:00:00 7.4 9 Sudeste 19 Sudeste 0 956.5 -0.1 47
2019-03-22 06:00:00 7.6 6 Sur 20 Sudoeste 0 956.6 -0.1 45
2019-03-22 05:00:00 8.1 12 Sur 19 Sur 0 956.5 -0.4 42
2019-03-22 04:00:00 8.3 5 Oeste 27 Sudeste 0 956.6 -0.5 47
2019-03-22 03:00:00 9.4 15 Sudeste 30 Sudeste 0 956.7 -0.4 44
2019-03-22 02:00:00 10.2 22 Sudeste 44 Sudeste 0 956.9 0 40
2019-03-22 01:00:00 10.5 24 Sudeste 50 Este 0 957.1 0.6 40
2019-03-22 00:00:00 11.5 20 Sudeste 38 Este 0 957.1 1 36
2019-03-21 23:00:00 11.7 12 Sudeste 27 Sur 0 956.9 1.4 34
2019-03-21 22:00:00 12 15 Sudeste 28 Sudeste 0 956.5 1.4 34
2019-03-21 21:00:00 12.1 12 Sudeste 24 Sudeste 0 956.1 1.4 34
2019-03-21 20:00:00 13 10 Sudeste 27 Sudeste 0 955.5 0.8 32
2019-03-21 19:00:00 14 12 Sudeste 25 Sudeste 0 955.1 0.1 29
2019-03-21 18:00:00 15.3 8 Sur 23 Nordeste 0 954.7 -0.7 25
2019-03-21 17:00:00 16.6 9 Nordeste 25 Norte 0 954.7 -1.6 23
2019-03-21 16:00:00 16.4 9 Nordeste 30 Sudeste 0 955 -2.1 23
2019-03-21 15:00:00 16.5 11 Nordeste 26 Norte 0 955.4 -2.3 21
2019-03-21 14:00:00 15.7 10 Este 26 Este 0 956.3 -2 25
2019-03-21 13:00:00 15.2 9 Este 22 Este 0 957.1 -1.2 28
2019-03-21 12:00:00 13.9 11 Este 32 Nordeste 0 957.7 -0.4 31
2019-03-21 11:00:00 12.8 8 Nordeste 19 Nordeste 0 958.3 0.7 35
2019-03-21 10:00:00 11.5 6 Nordeste 13 Nordeste 0 958.3 1.4 41
2019-03-21 09:00:00 9.1 4 Norte 26 Sudeste 0 958.1 1.6 47
2019-03-21 08:00:00 8.2 18 Sudeste 35 Sudeste 0 957.6 1.2 44
2019-03-21 07:00:00 7.9 22 Sudeste 36 Sudeste 0 956.9 0.6 44
2019-03-21 06:00:00 7.6 13 Sudeste 27 Sudeste 0 956.5 -0.6 42
2019-03-21 05:00:00 8.3 14 Sudeste 35 Sudeste 0 956.4 -0.8 45
2019-03-21 04:00:00 8.6 18 Sur 31 Sudeste 0 956.3 -1 44
2019-03-21 03:00:00 9.2 18 Sudeste 34 Sudeste 0 957.1 -0.1 51
2019-03-21 02:00:00 9.8 19 Sudeste 34 Sudeste 0 957.2 -0.1 51
2019-03-21 01:00:00 10.2 17 Sudeste 30 Sudeste 0 957.3 0.5 50
2019-03-21 00:00:00 10.7 10 Sudeste 30 Sudeste 0 957.2 0.9 50